createdAt,value
2018-05-25T00:00:45.984Z,4.60
2018-05-25T00:01:45.894Z,5.00
2018-05-25T00:02:45.795Z,4.90
2018-05-25T00:03:45.703Z,4.50
2018-05-25T00:04:45.610Z,4.60
2018-05-25T00:05:45.507Z,4.70
2018-05-25T00:06:45.411Z,4.90
2018-05-25T00:07:45.322Z,5.10
2018-05-25T00:08:45.219Z,5.10
2018-05-25T00:09:45.127Z,5.00
2018-05-25T00:10:45.041Z,4.80
2018-05-25T00:11:44.937Z,4.80
2018-05-25T00:12:44.850Z,4.60
2018-05-25T00:13:44.759Z,5.30
2018-05-25T00:14:44.651Z,5.10
2018-05-25T00:15:44.562Z,5.10
2018-05-25T00:16:44.460Z,4.10
2018-05-25T00:17:44.368Z,4.70
2018-05-25T00:18:44.274Z,5.00
2018-05-25T00:19:44.169Z,4.80
2018-05-25T00:20:44.081Z,4.90
2018-05-25T00:21:43.989Z,4.90
2018-05-25T00:22:43.894Z,5.10
2018-05-25T00:23:43.804Z,5.10
2018-05-25T00:24:43.734Z,4.90
2018-05-25T00:25:43.601Z,4.70
2018-05-25T00:26:43.514Z,4.80
2018-05-25T00:27:43.424Z,4.90
2018-05-25T00:28:43.330Z,4.80
2018-05-25T00:29:43.227Z,5.50
2018-05-25T00:30:43.131Z,4.70
2018-05-25T00:31:43.028Z,5.20
2018-05-25T00:32:42.947Z,5.40
2018-05-25T00:33:42.852Z,5.00
2018-05-25T00:34:42.745Z,4.50
2018-05-25T00:35:42.657Z,4.90
2018-05-25T00:36:42.550Z,4.60
2018-05-25T00:37:42.458Z,4.90
2018-05-25T00:38:42.372Z,4.60
2018-05-25T00:39:42.269Z,5.20
2018-05-25T00:40:42.173Z,4.60
2018-05-25T00:41:42.083Z,5.30
2018-05-25T00:42:41.985Z,4.90
2018-05-25T00:43:41.892Z,5.00
2018-05-25T00:44:41.793Z,5.00
2018-05-25T00:45:41.701Z,4.90
2018-05-25T00:46:41.605Z,5.40
2018-05-25T00:47:41.503Z,4.90
2018-05-25T00:48:41.414Z,4.70
2018-05-25T00:49:41.323Z,4.90
2018-05-25T00:50:41.214Z,4.50
2018-05-25T00:51:41.127Z,5.30
2018-05-25T00:52:41.035Z,4.90
2018-05-25T00:53:40.932Z,5.00
2018-05-25T00:54:40.846Z,4.70
2018-05-25T00:55:40.744Z,4.70
2018-05-25T00:56:40.648Z,4.70
2018-05-25T00:57:40.558Z,5.10
2018-05-25T00:58:40.459Z,4.70
2018-05-25T00:59:40.370Z,4.80
2018-05-25T01:00:40.263Z,4.60
2018-05-25T01:01:40.173Z,4.90
2018-05-25T01:02:40.075Z,4.80
2018-05-25T01:03:39.972Z,4.80
2018-05-25T01:04:39.889Z,5.10
2018-05-25T01:05:39.797Z,5.20
2018-05-25T01:06:39.691Z,5.20
2018-05-25T01:07:39.599Z,4.70
2018-05-25T01:08:39.495Z,4.90
2018-05-25T01:09:39.406Z,4.90
2018-05-25T01:10:39.316Z,4.60
2018-05-25T01:11:39.214Z,4.80
2018-05-25T01:12:39.120Z,5.00
2018-05-25T01:13:39.029Z,4.30
2018-05-25T01:14:38.930Z,4.70
2018-05-25T01:15:38.853Z,4.80
2018-05-25T01:16:38.737Z,5.10
2018-05-25T01:17:38.643Z,4.90
2018-05-25T01:18:38.798Z,5.10
2018-05-25T01:19:38.444Z,5.00
2018-05-25T01:20:38.361Z,4.90
2018-05-25T01:21:38.258Z,4.70
2018-05-25T01:22:38.162Z,5.00
2018-05-25T01:23:38.071Z,4.60
2018-05-25T01:24:37.966Z,4.40
2018-05-25T01:25:37.874Z,4.70
2018-05-25T01:26:37.777Z,4.90
2018-05-25T01:27:37.685Z,5.00
2018-05-25T01:28:37.889Z,4.40
2018-05-25T01:29:37.486Z,4.60
2018-05-25T01:30:37.400Z,4.80
2018-05-25T01:31:37.299Z,4.30
2018-05-25T01:32:37.209Z,4.80
2018-05-25T01:33:37.118Z,4.60
2018-05-25T01:34:37.013Z,4.70
2018-05-25T01:35:36.921Z,4.90
2018-05-25T01:36:36.819Z,5.20
2018-05-25T01:37:36.755Z,4.60
2018-05-25T01:38:36.634Z,4.90
2018-05-25T01:39:36.529Z,4.60
2018-05-25T01:40:36.440Z,5.00
2018-05-25T01:41:36.348Z,4.90
2018-05-25T01:42:36.251Z,4.70
2018-05-25T01:43:36.159Z,4.90
2018-05-25T01:44:36.052Z,4.60
2018-05-25T01:45:35.960Z,4.70
2018-05-25T01:46:35.863Z,4.80
2018-05-25T01:47:35.771Z,5.00
2018-05-25T01:48:35.977Z,4.90
2018-05-25T01:49:35.573Z,4.90
2018-05-25T01:50:35.480Z,4.90
2018-05-25T01:51:35.376Z,4.70
2018-05-25T01:52:35.291Z,5.10
2018-05-25T01:53:35.201Z,4.70
2018-05-25T01:54:35.099Z,5.10
2018-05-25T01:55:35.002Z,5.10
2018-05-25T01:56:34.899Z,5.20
2018-05-25T01:57:34.807Z,4.60
2018-05-25T01:58:35.019Z,4.90
2018-05-25T01:59:34.615Z,4.90
2018-05-25T02:00:34.522Z,4.80
2018-05-25T02:01:34.419Z,4.60
2018-05-25T02:02:34.331Z,4.80
2018-05-25T02:03:34.229Z,4.80
2018-05-25T02:04:34.140Z,4.70
2018-05-25T02:05:34.048Z,4.80
2018-05-25T02:06:33.941Z,4.60
2018-05-25T02:07:33.850Z,4.50
2018-05-25T02:08:34.049Z,5.10
2018-05-25T02:09:33.658Z,4.70
2018-05-25T02:10:33.564Z,4.40
2018-05-25T02:11:33.460Z,4.80
2018-05-25T02:12:33.373Z,4.70
2018-05-25T02:13:33.269Z,4.90
2018-05-25T02:14:33.183Z,4.90
2018-05-25T02:15:33.078Z,4.80
2018-05-25T02:16:32.988Z,4.90
2018-05-25T02:17:32.896Z,4.90
2018-05-25T02:18:32.848Z,4.90
2018-05-25T02:19:32.699Z,5.20
2018-05-25T02:20:32.592Z,4.90
2018-05-25T02:21:32.502Z,4.50
2018-05-25T02:22:32.415Z,4.80
2018-05-25T02:23:32.312Z,4.60
2018-05-25T02:24:32.219Z,4.90
2018-05-25T02:25:32.116Z,4.60
2018-05-25T02:26:32.029Z,4.50
2018-05-25T02:27:31.938Z,4.60
2018-05-25T02:28:32.083Z,5.00
2018-05-25T02:29:31.741Z,4.30
2018-05-25T02:30:31.634Z,4.80
2018-05-25T02:31:31.545Z,4.80
2018-05-25T02:32:31.445Z,4.80
2018-05-25T02:33:31.354Z,4.20
2018-05-25T02:34:31.246Z,5.00
2018-05-25T02:35:31.156Z,4.60
2018-05-25T02:36:31.066Z,4.50
2018-05-25T02:37:30.963Z,4.70
2018-05-25T02:38:30.877Z,4.90
2018-05-25T02:39:30.775Z,4.80
2018-05-25T02:40:30.677Z,4.60
2018-05-25T02:41:30.587Z,4.80
2018-05-25T02:42:30.488Z,4.60
2018-05-25T02:43:30.388Z,4.60
2018-05-25T02:44:30.294Z,4.70
2018-05-25T02:45:30.204Z,4.60
2018-05-25T02:46:30.099Z,4.70
2018-05-25T02:47:30.005Z,4.40
2018-05-25T02:48:29.906Z,4.40
2018-05-25T02:49:29.819Z,4.90
2018-05-25T02:50:29.720Z,4.70
2018-05-25T02:51:29.617Z,4.80
2018-05-25T02:52:29.525Z,4.50
2018-05-25T02:53:29.422Z,4.80
2018-05-25T02:54:29.338Z,4.80
2018-05-25T02:55:29.231Z,4.30
2018-05-25T02:56:29.138Z,4.40
2018-05-25T02:57:29.036Z,5.20
2018-05-25T02:58:28.948Z,4.70
2018-05-25T02:59:28.847Z,4.70
2018-05-25T03:00:28.753Z,4.80
2018-05-25T03:01:28.661Z,4.50
2018-05-25T03:02:28.554Z,4.60
2018-05-25T03:03:28.464Z,4.80
2018-05-25T03:04:28.365Z,4.30
2018-05-25T03:05:28.273Z,4.60
2018-05-25T03:06:28.166Z,4.20
2018-05-25T03:07:28.076Z,4.80
2018-05-25T03:08:27.986Z,4.60
2018-05-25T03:09:27.886Z,4.60
2018-05-25T03:10:27.799Z,4.60
2018-05-25T03:11:27.693Z,4.90
2018-05-25T03:12:27.597Z,4.60
2018-05-25T03:13:27.495Z,4.90
2018-05-25T03:14:27.407Z,4.40
2018-05-25T03:15:27.302Z,4.50
2018-05-25T03:16:27.213Z,4.60
2018-05-25T03:17:27.122Z,4.50
2018-05-25T03:18:27.016Z,4.70
2018-05-25T03:19:26.924Z,4.40
2018-05-25T03:20:26.823Z,4.90
2018-05-25T03:21:26.732Z,4.50
2018-05-25T03:22:26.624Z,4.60
2018-05-25T03:23:26.533Z,4.80
2018-05-25T03:24:26.432Z,4.40
2018-05-25T03:25:26.342Z,4.70
2018-05-25T03:26:26.254Z,5.00
2018-05-25T03:27:26.151Z,4.90
2018-05-25T03:28:26.056Z,4.60
2018-05-25T03:29:25.955Z,4.60
2018-05-25T03:30:25.865Z,4.80
2018-05-25T03:31:25.774Z,4.70
2018-05-25T03:32:25.673Z,4.70
2018-05-25T03:33:25.570Z,4.70
2018-05-25T03:34:25.473Z,4.60
2018-05-25T03:35:25.371Z,5.20
2018-05-25T03:36:25.284Z,4.80
2018-05-25T03:37:25.196Z,4.60
2018-05-25T03:38:25.086Z,4.60
2018-05-25T03:39:25.000Z,4.50
2018-05-25T03:40:24.892Z,4.60
2018-05-25T03:41:24.798Z,4.50
2018-05-25T03:42:24.699Z,4.60
2018-05-25T03:43:24.859Z,5.00
2018-05-25T03:44:24.505Z,4.60
2018-05-25T03:45:24.412Z,4.30
2018-05-25T03:46:24.326Z,4.50
2018-05-25T03:47:24.223Z,4.30
2018-05-25T03:48:24.129Z,4.90
2018-05-25T03:49:24.026Z,4.50
2018-05-25T03:50:23.932Z,4.70
2018-05-25T03:51:23.830Z,4.40
2018-05-25T03:52:23.741Z,4.50
2018-05-25T03:53:23.644Z,4.30
2018-05-25T03:54:23.544Z,4.20
2018-05-25T03:55:23.453Z,4.20
2018-05-25T03:56:23.351Z,4.10
2018-05-25T03:57:23.261Z,4.50
2018-05-25T03:58:23.162Z,4.50
2018-05-25T03:59:23.070Z,4.60
2018-05-25T04:00:22.965Z,4.40
2018-05-25T04:01:22.871Z,4.00
2018-05-25T04:02:22.783Z,4.60
2018-05-25T04:03:22.680Z,4.10
2018-05-25T04:04:22.592Z,4.10
2018-05-25T04:05:22.489Z,4.20
2018-05-25T04:06:22.393Z,4.50
2018-05-25T04:07:22.291Z,4.40
2018-05-25T04:08:22.204Z,4.70
2018-05-25T04:09:22.112Z,4.40
2018-05-25T04:10:22.005Z,4.10
2018-05-25T04:11:21.915Z,3.90
2018-05-25T04:12:21.810Z,4.20
2018-05-25T04:13:21.718Z,4.20
2018-05-25T04:14:21.646Z,4.20
2018-05-25T04:15:21.528Z,4.30
2018-05-25T04:16:21.436Z,4.10
2018-05-25T04:17:21.332Z,4.30
2018-05-25T04:18:21.245Z,4.20
2018-05-25T04:19:21.155Z,4.30
2018-05-25T04:20:21.049Z,4.90
2018-05-25T04:21:20.959Z,4.50
2018-05-25T04:22:20.863Z,4.80
2018-05-25T04:23:20.760Z,4.10
2018-05-25T04:24:20.670Z,4.00
2018-05-25T04:25:20.569Z,4.40
2018-05-25T04:26:20.492Z,4.00
2018-05-25T04:27:20.389Z,4.40
2018-05-25T04:28:20.288Z,4.20
2018-05-25T04:29:20.200Z,4.60
2018-05-25T04:30:20.102Z,4.30
2018-05-25T04:31:19.999Z,4.60
2018-05-25T04:32:19.909Z,4.20
2018-05-25T04:33:19.811Z,4.40
2018-05-25T04:34:19.712Z,4.20
2018-05-25T04:35:19.624Z,4.00
2018-05-25T04:36:19.521Z,4.00
2018-05-25T04:37:19.429Z,4.40
2018-05-25T04:38:19.341Z,4.50
2018-05-25T04:39:19.252Z,4.40
2018-05-25T04:40:19.144Z,4.30
2018-05-25T04:41:19.052Z,4.30
2018-05-25T04:42:18.967Z,4.30
2018-05-25T04:43:19.150Z,4.00
2018-05-25T04:44:18.770Z,4.20
2018-05-25T04:45:18.680Z,4.40
2018-05-25T04:46:18.584Z,4.20
2018-05-25T04:47:18.494Z,4.90
2018-05-25T04:48:18.409Z,4.30
2018-05-25T04:49:18.305Z,4.30
2018-05-25T04:50:18.211Z,4.30
2018-05-25T04:51:18.119Z,4.40
2018-05-25T04:52:18.032Z,4.30
2018-05-25T04:53:17.935Z,4.80
2018-05-25T04:54:17.839Z,4.60
2018-05-25T04:55:17.746Z,4.40
2018-05-25T04:56:17.650Z,4.50
2018-05-25T04:57:17.562Z,4.50
2018-05-25T04:58:17.473Z,4.40
2018-05-25T04:59:17.387Z,4.70
2018-05-25T05:00:17.294Z,4.40
2018-05-25T05:01:17.204Z,4.80
2018-05-25T05:02:17.110Z,4.80
2018-05-25T05:03:17.007Z,4.60
2018-05-25T05:04:16.959Z,5.10
2018-05-25T05:05:16.840Z,4.80
2018-05-25T05:06:16.732Z,4.70
2018-05-25T05:07:16.639Z,4.40
2018-05-25T05:08:16.551Z,4.60
2018-05-25T05:09:16.474Z,4.10
2018-05-25T05:10:16.375Z,4.50
2018-05-25T05:11:16.282Z,4.60
2018-05-25T05:12:16.188Z,4.40
2018-05-25T05:13:16.098Z,4.60
2018-05-25T05:14:16.011Z,5.10
2018-05-25T05:15:15.921Z,4.50
2018-05-25T05:16:15.827Z,4.60
2018-05-25T05:17:15.735Z,4.60
2018-05-25T05:18:15.893Z,4.60
2018-05-25T05:19:15.550Z,4.90
2018-05-25T05:20:15.466Z,4.60
2018-05-25T05:21:15.382Z,4.70
2018-05-25T05:22:15.280Z,4.70
2018-05-25T05:23:15.188Z,4.70
2018-05-25T05:24:15.100Z,4.70
2018-05-25T05:25:15.005Z,5.10
2018-05-25T05:26:14.920Z,4.70
2018-05-25T05:27:14.827Z,5.00
2018-05-25T05:28:14.735Z,4.80
2018-05-25T05:29:14.645Z,5.30
2018-05-25T05:30:14.557Z,4.80
2018-05-25T05:31:14.466Z,4.80
2018-05-25T05:32:14.375Z,5.20
2018-05-25T05:33:14.283Z,4.70
2018-05-25T05:34:14.189Z,4.80
2018-05-25T05:35:14.098Z,4.70
2018-05-25T05:36:14.024Z,5.30
2018-05-25T05:37:13.934Z,5.10
2018-05-25T05:38:13.839Z,5.50
2018-05-25T05:39:13.749Z,5.50
2018-05-25T05:40:13.655Z,5.20
2018-05-25T05:41:13.566Z,5.00
2018-05-25T05:42:13.478Z,5.40
2018-05-25T05:43:13.388Z,4.90
2018-05-25T05:44:13.291Z,4.80
2018-05-25T05:45:13.214Z,5.50
2018-05-25T05:46:13.120Z,5.00
2018-05-25T05:47:13.037Z,5.00
2018-05-25T05:48:12.948Z,4.60
2018-05-25T05:49:12.864Z,5.10
2018-05-25T05:50:12.761Z,5.30
2018-05-25T05:51:12.676Z,5.00
2018-05-25T05:52:12.583Z,5.00
2018-05-25T05:53:12.491Z,5.40
2018-05-25T05:54:12.399Z,4.90
2018-05-25T05:55:12.305Z,4.80
2018-05-25T05:56:12.217Z,5.20
2018-05-25T05:57:12.139Z,4.70
2018-05-25T05:58:12.053Z,4.90
2018-05-25T05:59:11.962Z,4.80
2018-05-25T06:00:11.866Z,4.60
2018-05-25T06:01:11.776Z,4.80
2018-05-25T06:02:11.688Z,5.10
2018-05-25T06:03:11.610Z,4.50
2018-05-25T06:04:11.518Z,4.90
2018-05-25T06:05:11.426Z,4.50
2018-05-25T06:06:11.333Z,4.90
2018-05-25T06:07:11.242Z,4.80
2018-05-25T06:08:11.157Z,4.90
2018-05-25T06:09:11.067Z,4.80
2018-05-25T06:10:10.983Z,5.00
2018-05-25T06:11:10.898Z,5.10
2018-05-25T06:12:10.799Z,5.00
2018-05-25T06:13:10.709Z,4.50
2018-05-25T06:14:10.634Z,4.90
2018-05-25T06:15:10.544Z,4.80
2018-05-25T06:16:10.449Z,4.90
2018-05-25T06:17:10.357Z,5.00
2018-05-25T06:18:10.283Z,4.90
2018-05-25T06:19:10.194Z,5.00
2018-05-25T06:20:10.104Z,4.80
2018-05-25T06:21:10.019Z,4.60
2018-05-25T06:22:09.917Z,5.40
2018-05-25T06:23:09.828Z,5.20
2018-05-25T06:24:09.751Z,5.20
2018-05-25T06:25:09.660Z,4.80
2018-05-25T06:26:09.566Z,5.20
2018-05-25T06:27:09.477Z,4.80
2018-05-25T06:28:09.403Z,5.00
2018-05-25T06:29:09.308Z,5.00
2018-05-25T06:30:09.222Z,5.00
2018-05-25T06:31:09.132Z,5.00
2018-05-25T06:32:09.052Z,5.00
2018-05-25T06:33:08.961Z,4.70
2018-05-25T06:34:08.865Z,4.70
2018-05-25T06:35:08.785Z,5.00
2018-05-25T06:36:08.695Z,4.90
2018-05-25T06:37:08.605Z,4.70
2018-05-25T06:38:08.526Z,5.00
2018-05-25T06:39:08.434Z,5.10
2018-05-25T06:40:08.344Z,4.80
2018-05-25T06:41:08.252Z,4.90
2018-05-25T06:42:08.188Z,5.00
2018-05-25T06:43:08.090Z,5.20
2018-05-25T06:44:07.993Z,4.90
2018-05-25T06:45:07.927Z,4.90
2018-05-25T06:46:07.824Z,4.90
2018-05-25T06:47:07.733Z,4.90
2018-05-25T06:48:07.656Z,4.80
2018-05-25T06:49:07.567Z,4.80
2018-05-25T06:50:07.473Z,5.00
2018-05-25T06:51:07.398Z,5.10
2018-05-25T06:52:07.307Z,5.30
2018-05-25T06:53:07.212Z,5.30
2018-05-25T06:54:07.135Z,4.80
2018-05-25T06:55:07.045Z,5.00
2018-05-25T06:56:06.954Z,5.40
2018-05-25T06:57:06.935Z,5.20
2018-05-25T06:58:06.796Z,5.20
2018-05-25T06:59:06.707Z,5.20
2018-05-25T07:00:06.628Z,5.40
2018-05-25T07:01:06.527Z,5.90
2018-05-25T07:02:06.446Z,5.10
2018-05-25T07:03:06.355Z,5.20
2018-05-25T07:04:06.277Z,5.30
2018-05-25T07:05:06.187Z,5.80
2018-05-25T07:06:06.098Z,5.10
2018-05-25T07:07:06.038Z,4.80
2018-05-25T07:08:05.926Z,5.20
2018-05-25T07:09:05.849Z,5.40
2018-05-25T07:10:05.757Z,5.10
2018-05-25T07:11:05.680Z,5.20
2018-05-25T07:12:05.590Z,5.00
2018-05-25T07:13:05.510Z,5.30
2018-05-25T07:14:05.419Z,5.30
2018-05-25T07:15:05.329Z,5.30
2018-05-25T07:16:05.251Z,5.20
2018-05-25T07:17:05.206Z,5.10
2018-05-25T07:18:05.095Z,5.60
2018-05-25T07:19:04.990Z,5.30
2018-05-25T07:20:04.917Z,5.30
2018-05-25T07:21:04.820Z,4.80
2018-05-25T07:22:04.742Z,5.30
2018-05-25T07:23:04.906Z,5.40
2018-05-25T07:24:04.575Z,5.00
2018-05-25T07:25:04.485Z,4.90
2018-05-25T07:26:04.404Z,5.00
2018-05-25T07:27:04.314Z,4.80
2018-05-25T07:28:04.236Z,5.40
2018-05-25T07:29:04.144Z,5.00
2018-05-25T07:30:04.066Z,5.00
2018-05-25T07:31:03.976Z,4.70
2018-05-25T07:32:03.886Z,4.60
2018-05-25T07:33:03.806Z,4.90
2018-05-25T07:34:03.717Z,5.00
2018-05-25T07:35:03.637Z,5.00
2018-05-25T07:36:03.547Z,4.70
2018-05-25T07:37:03.467Z,5.10
2018-05-25T07:38:03.378Z,5.10
2018-05-25T07:39:03.321Z,4.60
2018-05-25T07:40:03.208Z,4.80
2018-05-25T07:41:03.129Z,5.10
2018-05-25T07:42:03.039Z,4.90
2018-05-25T07:43:02.962Z,5.00
2018-05-25T07:44:02.869Z,5.10
2018-05-25T07:45:02.794Z,4.60
2018-05-25T07:46:02.700Z,4.70
2018-05-25T07:47:02.611Z,4.80
2018-05-25T07:48:02.535Z,4.70
2018-05-25T07:49:02.442Z,5.10
2018-05-25T07:50:02.363Z,5.10
2018-05-25T07:51:02.278Z,4.80
2018-05-25T07:52:02.198Z,4.60
2018-05-25T07:53:02.112Z,4.90
2018-05-25T07:54:02.082Z,4.90
2018-05-25T07:55:01.936Z,4.70
2018-05-25T07:56:01.854Z,4.70
2018-05-25T07:57:01.764Z,4.90
2018-05-25T07:58:01.987Z,5.10
2018-05-25T07:59:01.595Z,5.10
2018-05-25T08:00:01.517Z,5.50
2018-05-25T08:01:01.426Z,5.40
2018-05-25T08:02:01.351Z,5.20
2018-05-25T08:03:01.256Z,5.10
2018-05-25T08:04:01.178Z,5.00
2018-05-25T08:05:01.088Z,4.60
2018-05-25T08:06:00.999Z,4.90
2018-05-25T08:07:00.918Z,4.90
2018-05-25T08:08:00.829Z,5.00
2018-05-25T08:09:00.751Z,5.20
2018-05-25T08:10:00.658Z,4.90
2018-05-25T08:11:00.568Z,4.70
2018-05-25T08:12:00.537Z,4.70
2018-05-25T08:13:00.398Z,4.90
2018-05-25T08:14:00.308Z,5.20
2018-05-25T08:15:00.218Z,4.70
2018-05-25T08:16:00.139Z,5.20
2018-05-25T08:17:00.048Z,4.90
2018-05-25T08:18:00.206Z,4.60
2018-05-25T08:18:59.867Z,4.70
2018-05-25T08:19:59.788Z,4.60
2018-05-25T08:20:59.696Z,4.50
2018-05-25T08:21:59.668Z,5.20
2018-05-25T08:22:59.519Z,5.00
2018-05-25T08:23:59.425Z,4.70
2018-05-25T08:24:59.347Z,5.00
2018-05-25T08:25:59.256Z,4.80
2018-05-25T08:26:59.165Z,4.80
2018-05-25T08:27:59.090Z,4.50
2018-05-25T08:28:58.983Z,4.30
2018-05-25T08:29:58.892Z,4.70
2018-05-25T08:30:58.802Z,4.60
2018-05-25T08:31:58.710Z,4.60
2018-05-25T08:32:58.620Z,4.70
2018-05-25T08:33:58.529Z,4.50
2018-05-25T08:34:58.439Z,4.60
2018-05-25T08:35:58.347Z,4.60
2018-05-25T08:36:58.268Z,4.40
2018-05-25T08:37:58.245Z,4.50
2018-05-25T08:38:58.086Z,4.90
2018-05-25T08:39:57.997Z,4.70
2018-05-25T08:40:57.905Z,4.80
2018-05-25T08:41:57.816Z,4.80
2018-05-25T08:42:57.725Z,5.20
2018-05-25T08:43:57.634Z,5.10
2018-05-25T08:44:57.542Z,4.60
2018-05-25T08:45:57.468Z,4.70
2018-05-25T08:46:57.373Z,4.40
2018-05-25T08:47:57.281Z,4.90
2018-05-25T08:48:57.192Z,5.00
2018-05-25T08:49:57.113Z,5.00
2018-05-25T08:50:57.022Z,4.70
2018-05-25T08:51:56.932Z,4.70
2018-05-25T08:52:56.854Z,4.90
2018-05-25T08:53:56.763Z,4.80
2018-05-25T08:54:56.671Z,4.70
2018-05-25T08:55:56.593Z,4.60
2018-05-25T08:56:56.505Z,4.80
2018-05-25T08:57:56.432Z,4.70
2018-05-25T08:58:56.334Z,4.90
2018-05-25T08:59:56.255Z,4.90
2018-05-25T09:00:56.164Z,4.70
2018-05-25T09:01:56.085Z,4.40
2018-05-25T09:02:55.995Z,4.40
2018-05-25T09:03:55.916Z,4.70
2018-05-25T09:04:55.825Z,5.00
2018-05-25T09:05:55.749Z,4.80
2018-05-25T09:06:55.656Z,4.60
2018-05-25T09:07:55.579Z,4.90
2018-05-25T09:08:55.501Z,4.90
2018-05-25T09:09:55.408Z,4.30
2018-05-25T09:10:55.330Z,4.20
2018-05-25T09:11:55.240Z,5.00
2018-05-25T09:12:55.162Z,4.40
2018-05-25T09:13:55.086Z,4.70
2018-05-25T09:14:54.992Z,4.60
2018-05-25T09:15:54.913Z,4.90
2018-05-25T09:16:54.835Z,4.50
2018-05-25T09:17:55.007Z,4.40
2018-05-25T09:18:54.666Z,4.10
2018-05-25T09:19:54.588Z,4.00
2018-05-25T09:20:54.497Z,4.40
2018-05-25T09:21:54.425Z,4.30
2018-05-25T09:22:54.353Z,4.50
2018-05-25T09:23:54.251Z,4.60
2018-05-25T09:24:54.171Z,4.20
2018-05-25T09:25:54.094Z,4.20
2018-05-25T09:26:54.003Z,4.40
2018-05-25T09:27:53.924Z,4.40
2018-05-25T09:28:53.845Z,4.10
2018-05-25T09:29:53.756Z,4.40
2018-05-25T09:30:53.694Z,4.60
2018-05-25T09:31:53.599Z,4.70
2018-05-25T09:32:53.508Z,4.20
2018-05-25T09:33:53.429Z,4.40
2018-05-25T09:34:53.351Z,4.10
2018-05-25T09:35:53.286Z,4.10
2018-05-25T09:36:53.182Z,4.20
2018-05-25T09:37:53.104Z,4.60
2018-05-25T09:38:53.026Z,4.30
2018-05-25T09:39:52.938Z,4.80
2018-05-25T09:40:52.856Z,4.70
2018-05-25T09:41:52.779Z,4.40
2018-05-25T09:42:52.700Z,4.60
2018-05-25T09:43:52.621Z,4.40
2018-05-25T09:44:52.546Z,4.80
2018-05-25T09:45:52.453Z,4.50
2018-05-25T09:46:52.375Z,4.30
2018-05-25T09:47:52.296Z,4.20
2018-05-25T09:48:52.257Z,4.60
2018-05-25T09:49:52.125Z,4.30
2018-05-25T09:50:52.048Z,4.10
2018-05-25T09:51:51.983Z,4.40
2018-05-25T09:52:51.891Z,4.50
2018-05-25T09:53:51.801Z,4.20
2018-05-25T09:54:51.724Z,4.20
2018-05-25T09:55:51.645Z,4.30
2018-05-25T09:56:51.567Z,4.40
2018-05-25T09:57:51.726Z,4.10
2018-05-25T09:58:51.396Z,4.30
2018-05-25T09:59:51.318Z,4.50
2018-05-25T10:00:51.240Z,4.40
2018-05-25T10:01:51.161Z,4.00
2018-05-25T10:02:51.074Z,4.00
2018-05-25T10:03:50.997Z,4.30
2018-05-25T10:04:50.914Z,4.40
2018-05-25T10:05:50.837Z,4.50
2018-05-25T10:06:50.759Z,4.30
2018-05-25T10:07:50.681Z,4.30
2018-05-25T10:08:50.589Z,4.50
2018-05-25T10:09:50.510Z,4.60
2018-05-25T10:10:50.432Z,4.40
2018-05-25T10:11:50.354Z,4.40
2018-05-25T10:12:50.275Z,3.90
2018-05-25T10:13:50.197Z,4.40
2018-05-25T10:14:50.118Z,4.50
2018-05-25T10:15:50.039Z,4.40
2018-05-25T10:16:49.951Z,4.60
2018-05-25T10:17:50.127Z,4.40
2018-05-25T10:18:49.794Z,4.20
2018-05-25T10:19:49.716Z,4.50
2018-05-25T10:20:49.637Z,4.00
2018-05-25T10:21:49.547Z,4.20
2018-05-25T10:22:49.466Z,4.00
2018-05-25T10:23:49.388Z,4.00
2018-05-25T10:24:49.310Z,4.30
2018-05-25T10:25:49.232Z,3.90
2018-05-25T10:26:49.142Z,3.80
2018-05-25T10:27:49.063Z,3.90
2018-05-25T10:28:49.000Z,4.20
2018-05-25T10:29:48.907Z,3.90
2018-05-25T10:30:48.828Z,4.30
2018-05-25T10:31:48.738Z,4.50
2018-05-25T10:32:48.659Z,4.10
2018-05-25T10:33:48.579Z,4.30
2018-05-25T10:34:48.502Z,3.80
2018-05-25T10:35:48.424Z,4.30
2018-05-25T10:36:48.334Z,4.20
2018-05-25T10:37:48.256Z,3.80
2018-05-25T10:38:48.177Z,4.20
2018-05-25T10:39:48.099Z,4.00
2018-05-25T10:40:48.021Z,4.30
2018-05-25T10:41:47.998Z,3.80
2018-05-25T10:42:47.864Z,4.10
2018-05-25T10:43:47.784Z,4.20
2018-05-25T10:44:47.694Z,4.20
2018-05-25T10:45:47.616Z,3.70
2018-05-25T10:46:47.540Z,4.00
2018-05-25T10:47:47.462Z,4.20
2018-05-25T10:48:47.380Z,4.00
2018-05-25T10:49:47.302Z,3.80
2018-05-25T10:50:47.224Z,4.20
2018-05-25T10:51:47.134Z,3.50
2018-05-25T10:52:47.056Z,4.30
2018-05-25T10:53:46.978Z,4.20
2018-05-25T10:54:46.899Z,4.10
2018-05-25T10:55:46.821Z,4.20
2018-05-25T10:56:46.730Z,4.10
2018-05-25T10:57:46.651Z,4.10
2018-05-25T10:58:46.573Z,4.00
2018-05-25T10:59:46.493Z,3.80
2018-05-25T11:00:46.416Z,3.70
2018-05-25T11:01:46.329Z,3.80
2018-05-25T11:02:46.248Z,3.90
2018-05-25T11:03:46.182Z,4.10
2018-05-25T11:04:46.091Z,4.30
2018-05-25T11:05:46.001Z,4.00
2018-05-25T11:06:45.921Z,4.00
2018-05-25T11:07:45.844Z,4.00
2018-05-25T11:08:45.764Z,3.50
2018-05-25T11:09:45.685Z,3.70
2018-05-25T11:10:45.599Z,4.30
2018-05-25T11:11:45.517Z,4.20
2018-05-25T11:12:45.442Z,4.10
2018-05-25T11:13:45.361Z,3.80
2018-05-25T11:14:45.269Z,3.70
2018-05-25T11:15:45.191Z,3.90
2018-05-25T11:16:45.113Z,4.20
2018-05-25T11:17:45.023Z,3.90
2018-05-25T11:18:44.944Z,3.80
2018-05-25T11:19:44.865Z,4.40
2018-05-25T11:20:44.776Z,3.80
2018-05-25T11:21:44.709Z,3.50
2018-05-25T11:22:44.617Z,3.90
2018-05-25T11:23:44.541Z,3.70
2018-05-25T11:24:44.450Z,3.70
2018-05-25T11:25:44.372Z,3.40
2018-05-25T11:26:44.292Z,3.60
2018-05-25T11:27:44.215Z,4.00
2018-05-25T11:28:44.123Z,3.70
2018-05-25T11:29:44.052Z,3.80
2018-05-25T11:30:43.966Z,4.00
2018-05-25T11:31:43.876Z,3.90
2018-05-25T11:32:43.799Z,3.70
2018-05-25T11:33:43.707Z,3.70
2018-05-25T11:34:43.641Z,4.00
2018-05-25T11:35:43.550Z,4.20
2018-05-25T11:36:43.460Z,3.80
2018-05-25T11:37:43.382Z,4.10
2018-05-25T11:38:43.290Z,3.60
2018-05-25T11:39:43.212Z,3.70
2018-05-25T11:40:43.122Z,3.70
2018-05-25T11:41:43.043Z,3.90
2018-05-25T11:42:42.953Z,4.00
2018-05-25T11:43:42.863Z,3.70
2018-05-25T11:44:42.783Z,4.00
2018-05-25T11:45:42.692Z,3.40
2018-05-25T11:46:42.613Z,3.60
2018-05-25T11:47:42.526Z,4.00
2018-05-25T11:48:42.445Z,3.50
2018-05-25T11:49:42.354Z,3.80
2018-05-25T11:50:42.263Z,3.80
2018-05-25T11:51:42.185Z,3.90
2018-05-25T11:52:42.093Z,3.90
2018-05-25T11:53:42.038Z,3.50
2018-05-25T11:54:41.925Z,3.60
2018-05-25T11:55:41.838Z,3.80
2018-05-25T11:56:41.756Z,3.40
2018-05-25T11:57:41.916Z,3.70
2018-05-25T11:58:41.573Z,3.90
2018-05-25T11:59:41.495Z,3.80
2018-05-25T12:00:41.405Z,3.90
2018-05-25T12:01:41.313Z,3.70
2018-05-25T12:02:41.248Z,3.90
2018-05-25T12:03:41.146Z,3.60
2018-05-25T12:04:41.059Z,3.80
2018-05-25T12:05:40.978Z,3.60
2018-05-25T12:06:40.925Z,3.70
2018-05-25T12:07:40.807Z,3.70
2018-05-25T12:08:40.715Z,4.00
2018-05-25T12:09:40.626Z,4.30
2018-05-25T12:10:40.547Z,3.70
2018-05-25T12:11:40.455Z,3.80
2018-05-25T12:12:40.377Z,4.00
2018-05-25T12:13:40.287Z,3.80
2018-05-25T12:14:40.211Z,4.00
2018-05-25T12:15:40.117Z,3.70
2018-05-25T12:16:40.039Z,3.70
2018-05-25T12:17:39.949Z,3.70
2018-05-25T12:18:39.859Z,3.70
2018-05-25T12:19:39.778Z,3.80
2018-05-25T12:20:39.689Z,3.60
2018-05-25T12:21:39.611Z,3.80
2018-05-25T12:22:39.519Z,4.00
2018-05-25T12:23:39.441Z,4.40
2018-05-25T12:24:39.353Z,3.60
2018-05-25T12:25:39.272Z,3.80
2018-05-25T12:26:39.181Z,3.70
2018-05-25T12:27:39.091Z,4.00
2018-05-25T12:28:39.012Z,3.60
2018-05-25T12:29:38.921Z,3.70
2018-05-25T12:30:38.843Z,3.80
2018-05-25T12:31:38.758Z,3.50
2018-05-25T12:32:38.662Z,3.80
2018-05-25T12:33:38.596Z,3.70
2018-05-25T12:34:38.493Z,3.60
2018-05-25T12:35:38.413Z,3.40
2018-05-25T12:36:38.324Z,3.50
2018-05-25T12:37:38.236Z,3.80
2018-05-25T12:38:38.154Z,3.60
2018-05-25T12:39:38.065Z,3.50
2018-05-25T12:40:37.973Z,3.60
2018-05-25T12:41:37.895Z,3.60
2018-05-25T12:42:37.803Z,3.80
2018-05-25T12:43:37.716Z,3.50
2018-05-25T12:44:37.634Z,3.50
2018-05-25T12:45:37.542Z,3.90
2018-05-25T12:46:37.453Z,3.40
2018-05-25T12:47:37.375Z,3.50
2018-05-25T12:48:37.283Z,3.30
2018-05-25T12:49:37.193Z,3.60
2018-05-25T12:50:37.114Z,4.20
2018-05-25T12:51:37.023Z,3.50
2018-05-25T12:52:36.933Z,3.80
2018-05-25T12:53:36.842Z,3.50
2018-05-25T12:54:36.762Z,3.60
2018-05-25T12:55:36.674Z,3.80
2018-05-25T12:56:36.599Z,3.90
2018-05-25T12:57:36.502Z,3.60
2018-05-25T12:58:36.416Z,3.70
2018-05-25T12:59:36.321Z,3.60
2018-05-25T13:00:36.230Z,3.70
2018-05-25T13:01:36.153Z,3.70
2018-05-25T13:02:36.061Z,3.20
2018-05-25T13:03:35.971Z,3.50
2018-05-25T13:04:35.879Z,3.70
2018-05-25T13:05:35.801Z,3.60
2018-05-25T13:06:35.711Z,3.20
2018-05-25T13:07:35.621Z,3.90
2018-05-25T13:08:35.530Z,3.70
2018-05-25T13:09:35.451Z,3.90
2018-05-25T13:10:35.359Z,4.00
2018-05-25T13:11:35.271Z,3.90
2018-05-25T13:12:35.182Z,4.10
2018-05-25T13:13:35.099Z,3.70
2018-05-25T13:14:35.010Z,3.90
2018-05-25T13:15:34.918Z,3.80
2018-05-25T13:16:34.844Z,3.80
2018-05-25T13:17:34.750Z,4.10